createdAt,value
2022-12-25T00:04:13.898Z,100440.60
2022-12-25T00:09:15.695Z,100435.00
2022-12-25T00:14:19.536Z,100435.60
2022-12-25T00:19:21.080Z,100440.60
2022-12-25T00:24:24.439Z,100449.20
2022-12-25T00:29:26.028Z,100457.60
2022-12-25T00:34:27.656Z,100458.60
2022-12-25T00:39:29.360Z,100454.20
2022-12-25T00:44:31.107Z,100460.20
2022-12-25T00:49:32.764Z,100466.60
2022-12-25T00:54:34.618Z,100463.80
2022-12-25T00:59:36.311Z,100479.00
2022-12-25T01:04:37.826Z,100495.00
2022-12-25T01:09:58.148Z,100509.00
2022-12-25T01:15:00.077Z,100514.40
2022-12-25T01:20:02.210Z,100515.00
2022-12-25T01:25:05.613Z,100521.20
2022-12-25T01:30:08.349Z,100512.80
2022-12-25T01:35:10.063Z,100513.40
2022-12-25T01:40:11.939Z,100525.80
2022-12-25T01:45:39.998Z,100518.80
2022-12-25T01:50:53.121Z,100519.20
2022-12-25T01:56:02.601Z,100512.80
2022-12-25T02:01:04.198Z,100508.80
2022-12-25T02:06:07.274Z,100504.40
2022-12-25T02:11:28.885Z,100499.20
2022-12-25T02:16:35.341Z,100511.60
2022-12-25T02:22:22.606Z,100521.40
2022-12-25T02:28:05.728Z,100528.80
2022-12-25T02:33:38.653Z,100538.20
2022-12-25T02:39:01.875Z,100537.80
2022-12-25T02:44:32.647Z,100539.40
2022-12-25T02:49:55.594Z,100528.20
2022-12-25T02:55:25.545Z,100534.80
2022-12-25T03:00:46.171Z,100533.20
2022-12-25T03:06:09.261Z,100533.80
2022-12-25T03:11:30.908Z,100543.20
2022-12-25T03:16:54.852Z,100544.80
2022-12-25T03:22:17.963Z,100547.40
2022-12-25T03:27:19.535Z,100547.00
2022-12-25T03:32:58.228Z,100546.00
2022-12-25T03:38:46.160Z,100540.20
2022-12-25T03:44:42.709Z,100545.20
2022-12-25T03:50:11.763Z,100541.60
2022-12-25T03:55:36.429Z,100545.20
2022-12-25T04:00:57.034Z,100545.20
2022-12-25T04:06:17.386Z,100555.00
2022-12-25T04:11:37.734Z,100556.00
2022-12-25T04:16:57.948Z,100554.20
2022-12-25T04:22:18.309Z,100555.40
2022-12-25T04:27:38.964Z,100549.00
2022-12-25T04:32:59.339Z,100564.40
2022-12-25T04:38:01.473Z,100574.40
2022-12-25T04:43:03.200Z,100573.20
2022-12-25T04:48:05.257Z,100567.60
2022-12-25T04:53:06.758Z,100561.40
2022-12-25T04:58:08.656Z,100560.00
2022-12-25T05:03:10.274Z,100559.40
2022-12-25T05:08:11.958Z,100554.60
2022-12-25T05:13:13.632Z,100568.40
2022-12-25T05:18:15.271Z,100574.60
2022-12-25T05:23:16.781Z,100568.00
2022-12-25T05:28:18.443Z,100579.20
2022-12-25T05:33:19.958Z,100583.40
2022-12-25T05:38:21.594Z,100603.00
2022-12-25T05:43:23.547Z,100605.40
2022-12-25T05:48:25.102Z,100606.80
2022-12-25T05:53:26.639Z,100611.40
2022-12-25T05:58:29.918Z,100612.00
2022-12-25T06:03:31.582Z,100606.20
2022-12-25T06:08:34.153Z,100604.00
2022-12-25T06:13:36.564Z,100621.00
2022-12-25T06:18:43.732Z,100620.00
2022-12-25T06:23:45.428Z,100623.60
2022-12-25T06:28:47.899Z,100629.20
2022-12-25T06:33:50.203Z,100641.60
2022-12-25T06:38:52.900Z,100652.80
2022-12-25T06:44:00.038Z,100662.00
2022-12-25T06:49:01.668Z,100665.40
2022-12-25T06:54:04.115Z,100677.20
2022-12-25T06:59:11.004Z,100692.40
2022-12-25T07:04:31.487Z,100716.20
2022-12-25T07:09:33.587Z,100715.80
2022-12-25T07:14:35.167Z,100717.20
2022-12-25T07:19:42.684Z,100718.80
2022-12-25T07:24:46.370Z,100719.80
2022-12-25T07:29:48.974Z,100735.00
2022-12-25T07:34:50.634Z,100741.20
2022-12-25T07:39:52.134Z,100754.00
2022-12-25T07:44:53.625Z,100744.80
2022-12-25T07:49:55.133Z,100758.40
2022-12-25T07:54:56.653Z,100767.60
2022-12-25T07:59:58.207Z,100771.20
2022-12-25T08:04:59.818Z,100774.80
2022-12-25T08:10:02.706Z,100778.40
2022-12-25T08:15:05.068Z,100782.00
2022-12-25T08:20:08.078Z,100789.80
2022-12-25T08:25:09.692Z,100796.00
2022-12-25T08:30:11.632Z,100801.80
2022-12-25T08:35:13.134Z,100796.60
2022-12-25T08:40:14.901Z,100803.20
2022-12-25T08:45:16.505Z,100805.40
2022-12-25T08:50:18.111Z,100809.00
2022-12-25T08:55:19.645Z,100817.60
2022-12-25T09:00:21.242Z,100820.80
2022-12-25T09:05:22.892Z,100809.20
2022-12-25T09:10:24.408Z,100810.80
2022-12-25T09:15:26.069Z,100811.20
2022-12-25T09:20:27.736Z,100819.00
2022-12-25T09:25:29.368Z,100816.40
2022-12-25T09:30:30.934Z,100821.40
2022-12-25T09:35:32.511Z,100828.20
2022-12-25T09:40:34.799Z,100818.80
2022-12-25T09:45:38.952Z,100816.80
2022-12-25T09:50:49.357Z,100822.80
2022-12-25T09:56:17.061Z,100825.80
2022-12-25T10:01:34.576Z,100824.80
2022-12-25T10:07:17.325Z,100829.00
2022-12-25T10:12:26.648Z,100836.60
2022-12-25T10:18:13.472Z,100843.60
2022-12-25T10:23:53.579Z,100828.00
2022-12-25T10:29:06.009Z,100837.60
2022-12-25T10:34:11.963Z,100845.40
2022-12-25T10:39:23.983Z,100847.60
2022-12-25T10:44:25.841Z,100837.80
2022-12-25T10:49:38.282Z,100820.60
2022-12-25T10:54:40.180Z,100819.60
2022-12-25T10:59:46.159Z,100811.80
2022-12-25T11:04:48.659Z,100814.20
2022-12-25T11:10:05.559Z,100815.80
2022-12-25T11:15:29.873Z,100817.00
2022-12-25T11:20:32.662Z,100815.60
2022-12-25T11:25:34.546Z,100821.80
2022-12-25T11:30:37.757Z,100826.00
2022-12-25T11:35:52.443Z,100828.40
2022-12-25T11:40:59.003Z,100835.20
2022-12-25T11:46:22.229Z,100838.00
2022-12-25T11:51:31.646Z,100840.60
2022-12-25T11:56:33.399Z,100847.40
2022-12-25T12:01:44.240Z,100852.80
2022-12-25T12:07:05.977Z,100861.00
2022-12-25T12:12:46.669Z,100855.40
2022-12-25T12:17:50.280Z,100857.80
2022-12-25T12:22:52.236Z,100854.60
2022-12-25T12:28:04.822Z,100852.80
2022-12-25T12:33:20.586Z,100832.20
2022-12-25T12:38:23.801Z,100827.00
2022-12-25T12:43:47.729Z,100822.80
2022-12-25T12:48:53.125Z,100825.40
2022-12-25T12:54:27.321Z,100830.60
2022-12-25T12:59:39.521Z,100829.80
2022-12-25T13:05:06.374Z,100821.40
2022-12-25T13:10:26.748Z,100838.60
2022-12-25T13:15:34.365Z,100851.40
2022-12-25T13:20:54.299Z,100845.60
2022-12-25T13:26:00.290Z,100847.40
2022-12-25T13:31:10.561Z,100851.80
2022-12-25T13:36:13.947Z,100838.40
2022-12-25T13:41:42.375Z,100841.40
2022-12-25T13:46:44.018Z,100842.00
2022-12-25T13:51:46.078Z,100840.60
2022-12-25T13:56:53.617Z,100847.40
2022-12-25T14:01:57.276Z,100846.60
2022-12-25T14:07:10.250Z,100844.60
2022-12-25T14:12:18.932Z,100838.20
2022-12-25T14:17:22.876Z,100840.20
2022-12-25T14:22:26.602Z,100835.20
2022-12-25T14:27:32.089Z,100834.40
2022-12-25T14:32:43.068Z,100850.40
2022-12-25T14:37:45.575Z,100858.40
2022-12-25T14:43:05.744Z,100877.20
2022-12-25T14:48:25.736Z,100888.40
2022-12-25T14:53:48.361Z,100885.60
2022-12-25T14:58:57.625Z,100891.00
2022-12-25T15:04:20.026Z,100894.80
2022-12-25T15:09:23.564Z,100890.60
2022-12-25T15:14:26.705Z,100884.20
2022-12-25T15:19:38.224Z,100876.80
2022-12-25T15:24:40.322Z,100873.00
2022-12-25T15:35:04.676Z,100888.20
2022-12-25T15:40:07.396Z,100873.80
2022-12-25T15:45:30.406Z,100869.20
2022-12-25T15:50:32.207Z,100850.20
2022-12-25T15:55:34.018Z,100836.40
2022-12-25T16:00:35.628Z,100831.80
2022-12-25T16:05:37.252Z,100831.20
2022-12-25T16:10:40.468Z,100835.60
2022-12-25T16:15:42.120Z,100880.00
2022-12-25T16:20:43.765Z,100882.80
2022-12-25T16:25:45.534Z,100871.00
2022-12-25T16:30:47.686Z,100868.80
2022-12-25T16:35:50.747Z,100876.40
2022-12-25T16:40:59.029Z,100876.00
2022-12-25T16:46:00.820Z,100878.60
2022-12-25T17:02:21.775Z,100866.20
2022-12-25T17:07:23.541Z,100857.40
2022-12-25T17:12:25.263Z,100859.20
2022-12-25T17:17:26.834Z,100867.40
2022-12-25T17:22:28.592Z,100857.20
2022-12-25T17:27:30.305Z,100853.00
2022-12-25T17:32:33.822Z,100846.60
2022-12-25T17:37:35.326Z,100848.80
2022-12-25T17:42:36.803Z,100847.20
2022-12-25T17:47:38.274Z,100847.20
2022-12-25T17:52:39.859Z,100838.40
2022-12-25T17:57:41.510Z,100842.80
2022-12-25T18:02:46.428Z,100845.80
2022-12-25T18:07:48.320Z,100834.00
2022-12-25T18:12:49.839Z,100827.40
2022-12-25T18:17:51.386Z,100828.80
2022-12-25T18:22:52.981Z,100828.00
2022-12-25T18:27:55.913Z,100819.40
2022-12-25T18:32:57.429Z,100810.20
2022-12-25T18:37:59.099Z,100804.00
2022-12-25T18:43:03.491Z,100807.80
2022-12-25T18:48:06.714Z,100809.40
2022-12-25T18:53:08.302Z,100814.20
2022-12-25T18:58:09.800Z,100815.40
2022-12-25T19:03:11.344Z,100809.20
2022-12-25T19:08:13.489Z,100799.60
2022-12-25T19:13:15.104Z,100796.40
2022-12-25T19:18:16.725Z,100779.20
2022-12-25T19:23:18.208Z,100780.00
2022-12-25T19:28:20.636Z,100767.00
2022-12-25T19:33:22.240Z,100761.00
2022-12-25T19:38:23.745Z,100760.20
2022-12-25T19:43:38.124Z,100754.40
2022-12-25T19:48:39.687Z,100750.20
2022-12-25T19:53:41.680Z,100735.80
2022-12-25T19:58:43.743Z,100731.40
2022-12-25T20:03:47.037Z,100733.40
2022-12-25T20:08:53.072Z,100745.00
2022-12-25T20:13:55.831Z,100748.40
2022-12-25T20:18:58.779Z,100741.80
2022-12-25T20:24:00.437Z,100740.80
2022-12-25T20:29:04.291Z,100742.00
2022-12-25T20:34:10.805Z,100739.80
2022-12-25T20:39:12.497Z,100746.40
2022-12-25T20:44:14.323Z,100746.40
2022-12-25T20:49:15.891Z,100745.80
2022-12-25T20:54:17.417Z,100735.80
2022-12-25T20:59:18.931Z,100725.00
2022-12-25T21:04:20.732Z,100723.20
2022-12-25T21:09:22.344Z,100719.40
2022-12-25T21:14:23.994Z,100697.40
2022-12-25T21:19:25.539Z,100700.80
2022-12-25T21:24:27.028Z,100691.80
2022-12-25T21:29:28.705Z,100685.20
2022-12-25T21:34:30.258Z,100671.60
2022-12-25T21:39:31.806Z,100664.80
2022-12-25T21:44:33.305Z,100651.40
2022-12-25T21:49:53.708Z,100649.80
2022-12-25T21:54:55.236Z,100661.80
2022-12-25T21:59:56.731Z,100652.80
2022-12-25T22:04:58.277Z,100637.00
2022-12-25T22:09:59.844Z,100634.80
2022-12-25T22:15:05.947Z,100632.40
2022-12-25T22:20:12.474Z,100621.00
2022-12-25T22:25:15.760Z,100600.80
2022-12-25T22:30:22.270Z,100590.60
2022-12-25T22:35:24.496Z,100576.80
2022-12-25T22:40:26.346Z,100562.80
2022-12-25T22:45:28.055Z,100547.80
2022-12-25T22:50:29.570Z,100549.80
2022-12-25T22:55:31.171Z,100534.00
2022-12-25T23:00:33.050Z,100523.60
2022-12-25T23:05:34.618Z,100516.00
2022-12-25T23:10:36.200Z,100516.20
2022-12-25T23:15:37.944Z,100509.00
2022-12-25T23:20:58.355Z,100496.80
2022-12-25T23:26:09.763Z,100486.40
2022-12-25T23:31:11.308Z,100471.20
2022-12-25T23:36:12.960Z,100464.20
2022-12-25T23:41:14.491Z,100480.60
2022-12-25T23:46:16.171Z,100499.20
2022-12-25T23:51:18.157Z,100495.20
2022-12-25T23:56:19.857Z,100486.60
